Terminal Aerodrome Forecast
Issued by NWS Jacksonville, FL

Home | Current Version | Previous Version | Text Only | Print | Product List | Glossary On
Versions: 1 2 3 4 5 6 7 8 9 10 11 12 13 14 15 16
182
FTUS42 KJAX 010541
TAFJAX
TAF
KJAX 010541Z 0106/0206 33003KT P6SM SCT050
     FM011400 36006KT P6SM BKN050
     FM012000 04007KT P6SM SCT050=

USA.gov is the U.S. government's official web portal to all federal, state and local government web resources and services.